createdAt,value
2017-04-23T00:00:48.640Z,22.3
2017-04-23T00:01:56.725Z,22.3
2017-04-23T00:03:04.812Z,22.3
2017-04-23T00:04:12.902Z,22.2
2017-04-23T00:05:20.996Z,22.3
2017-04-23T00:06:29.078Z,22.2
2017-04-23T00:07:37.170Z,22.2
2017-04-23T00:08:45.258Z,22.2
2017-04-23T00:09:53.348Z,22.2
2017-04-23T00:11:06.645Z,22.3
2017-04-23T00:12:09.517Z,22.2
2017-04-23T00:13:17.609Z,22.3
2017-04-23T00:14:25.691Z,22.3
2017-04-23T00:15:33.784Z,22.2
2017-04-23T00:16:41.870Z,22.3
2017-04-23T00:17:49.954Z,22.3
2017-04-23T00:18:58.041Z,22.3
2017-04-23T00:20:06.136Z,22.3
2017-04-23T00:21:14.218Z,22.3
2017-04-23T00:22:22.303Z,22.3
2017-04-23T00:23:30.434Z,22.3
2017-04-23T00:24:38.474Z,22.3
2017-04-23T00:25:46.557Z,22.3
2017-04-23T00:26:54.646Z,22.2
2017-04-23T00:28:02.738Z,22.3
2017-04-23T00:29:10.818Z,22.2
2017-04-23T00:30:18.902Z,22.3
2017-04-23T00:31:26.992Z,22.3
2017-04-23T00:32:35.080Z,22.3
2017-04-23T00:33:43.164Z,22.3
2017-04-23T00:34:51.254Z,22.3
2017-04-23T00:35:59.349Z,22.3
2017-04-23T00:37:07.435Z,22.3
2017-04-23T00:38:15.524Z,22.3
2017-04-23T00:39:23.619Z,22.3
2017-04-23T00:40:31.724Z,22.3
2017-04-23T00:41:39.788Z,22.3
2017-04-23T00:42:47.876Z,22.3
2017-04-23T00:43:55.964Z,22.2
2017-04-23T00:45:04.052Z,22.2
2017-04-23T00:46:12.134Z,22.3
2017-04-23T00:47:20.223Z,22.3
2017-04-23T00:48:28.310Z,22.3
2017-04-23T00:49:36.392Z,22.3
2017-04-23T00:50:44.482Z,22.3
2017-04-23T00:51:52.568Z,22.3
2017-04-23T00:53:00.650Z,22.4
2017-04-23T00:54:08.738Z,22.3
2017-04-23T00:55:16.825Z,22.3
2017-04-23T00:56:24.912Z,22.4
2017-04-23T00:57:33.003Z,22.3
2017-04-23T00:58:41.089Z,22.4
2017-04-23T00:59:49.175Z,22.4
2017-04-23T01:00:57.267Z,22.3
2017-04-23T01:02:05.346Z,22.4
2017-04-23T01:03:13.436Z,22.3
2017-04-23T01:04:21.528Z,22.4
2017-04-23T01:05:29.617Z,22.4
2017-04-23T01:06:37.702Z,22.4
2017-04-23T01:07:45.788Z,22.3
2017-04-23T01:08:53.874Z,22.3
2017-04-23T01:10:01.957Z,22.4
2017-04-23T01:11:10.049Z,22.4
2017-04-23T01:12:18.140Z,22.3
2017-04-23T01:13:26.224Z,22.4
2017-04-23T01:14:34.312Z,22.4
2017-04-23T01:15:42.397Z,22.4
2017-04-23T01:16:50.477Z,22.4
2017-04-23T01:17:58.571Z,22.3
2017-04-23T01:19:06.657Z,22.4
2017-04-23T01:20:14.742Z,22.4
2017-04-23T01:21:22.825Z,22.4
2017-04-23T01:22:30.914Z,22.4
2017-04-23T01:23:39.004Z,22.4
2017-04-23T01:24:47.092Z,22.4
2017-04-23T01:25:55.174Z,22.3
2017-04-23T01:27:03.266Z,22.4
2017-04-23T01:28:11.344Z,22.4
2017-04-23T01:29:19.429Z,22.4
2017-04-23T01:30:27.520Z,22.4
2017-04-23T01:31:35.608Z,22.4
2017-04-23T01:32:43.698Z,22.3
2017-04-23T01:33:51.783Z,22.4
2017-04-23T01:34:59.873Z,22.4
2017-04-23T01:36:07.958Z,22.3
2017-04-23T01:37:16.092Z,22.4
2017-04-23T01:38:24.131Z,22.3
2017-04-23T01:39:32.219Z,22.4
2017-04-23T01:40:40.307Z,22.4
2017-04-23T01:41:48.394Z,22.3
2017-04-23T01:42:56.479Z,22.4
2017-04-23T01:44:04.565Z,22.3
2017-04-23T01:45:12.659Z,22.3
2017-04-23T01:46:20.742Z,22.4
2017-04-23T01:47:28.834Z,22.4
2017-04-23T01:48:36.915Z,22.4
2017-04-23T01:49:45.005Z,22.3
2017-04-23T01:50:53.099Z,22.4
2017-04-23T01:52:01.177Z,22.4
2017-04-23T01:53:09.266Z,22.4
2017-04-23T01:54:17.367Z,22.4
2017-04-23T01:55:25.455Z,22.4
2017-04-23T01:56:33.536Z,22.4
2017-04-23T01:57:41.628Z,22.4
2017-04-23T01:58:49.706Z,22.4
2017-04-23T01:59:57.794Z,22.4
2017-04-23T02:01:05.877Z,22.5
2017-04-23T02:02:13.966Z,22.5
2017-04-23T02:03:22.049Z,22.5
2017-04-23T02:04:30.135Z,22.4
2017-04-23T02:05:38.225Z,22.5
2017-04-23T02:06:46.312Z,22.5
2017-04-23T02:07:54.400Z,22.5
2017-04-23T02:09:02.483Z,22.6
2017-04-23T02:10:10.572Z,22.5
2017-04-23T02:11:18.660Z,22.5
2017-04-23T02:12:26.751Z,22.5
2017-04-23T02:13:34.847Z,22.5
2017-04-23T02:14:42.921Z,22.6
2017-04-23T02:15:51.004Z,22.6
2017-04-23T02:16:59.090Z,22.6
2017-04-23T02:18:07.180Z,22.6
2017-04-23T02:19:15.266Z,22.6
2017-04-23T02:20:23.349Z,22.6
2017-04-23T02:21:31.436Z,22.6
2017-04-23T02:22:39.523Z,22.6
2017-04-23T02:23:47.611Z,22.6
2017-04-23T02:24:55.696Z,22.6
2017-04-23T02:26:03.784Z,22.6
2017-04-23T02:27:11.869Z,22.6
2017-04-23T02:28:19.959Z,22.6
2017-04-23T02:29:28.046Z,22.7
2017-04-23T02:30:36.136Z,22.7
2017-04-23T02:31:44.220Z,22.6
2017-04-23T02:32:52.300Z,22.7
2017-04-23T02:34:00.394Z,22.6
2017-04-23T02:35:08.480Z,22.7
2017-04-23T02:36:16.563Z,22.7
2017-04-23T02:37:24.654Z,22.8
2017-04-23T02:38:32.741Z,22.8
2017-04-23T02:39:40.828Z,22.8
2017-04-23T02:40:48.917Z,22.9
2017-04-23T02:41:57.008Z,22.8
2017-04-23T02:43:05.102Z,22.8
2017-04-23T02:44:13.173Z,22.8
2017-04-23T02:45:21.264Z,22.7
2017-04-23T02:46:29.351Z,22.8
2017-04-23T02:47:37.442Z,22.8
2017-04-23T02:48:45.536Z,22.8
2017-04-23T02:49:53.619Z,22.8
2017-04-23T02:51:01.714Z,22.9
2017-04-23T02:52:09.789Z,22.9
2017-04-23T02:53:17.881Z,22.9
2017-04-23T02:54:25.964Z,22.9
2017-04-23T02:55:34.046Z,22.8
2017-04-23T02:56:42.135Z,22.9
2017-04-23T02:57:50.226Z,22.9
2017-04-23T02:58:58.312Z,22.9
2017-04-23T03:00:06.397Z,22.9
2017-04-23T03:01:14.488Z,22.9
2017-04-23T03:02:22.578Z,23.0
2017-04-23T03:03:30.665Z,22.9
2017-04-23T03:04:38.752Z,23.0
2017-04-23T03:05:46.838Z,23.0
2017-04-23T03:06:54.926Z,22.9
2017-04-23T03:08:03.129Z,22.9
2017-04-23T03:09:11.133Z,23.0
2017-04-23T03:10:19.187Z,23.0
2017-04-23T03:11:27.273Z,23.0
2017-04-23T03:12:35.358Z,23.0
2017-04-23T03:13:43.447Z,23.0
2017-04-23T03:14:51.537Z,23.0
2017-04-23T03:15:59.621Z,23.0
2017-04-23T03:17:07.710Z,23.1
2017-04-23T03:18:15.795Z,23.1
2017-04-23T03:19:23.877Z,23.1
2017-04-23T03:20:31.969Z,23.1
2017-04-23T03:21:40.056Z,23.0
2017-04-23T03:22:48.143Z,23.0
2017-04-23T03:23:56.226Z,23.1
2017-04-23T03:25:04.318Z,23.1
2017-04-23T03:26:12.434Z,23.1
2017-04-23T03:27:20.487Z,23.1
2017-04-23T03:28:28.577Z,23.1
2017-04-23T03:29:36.661Z,23.0
2017-04-23T03:30:44.747Z,23.1
2017-04-23T03:31:52.833Z,23.1
2017-04-23T03:33:00.923Z,23.1
2017-04-23T03:34:09.016Z,23.1
2017-04-23T03:35:17.100Z,23.1
2017-04-23T03:36:25.191Z,23.0
2017-04-23T03:37:33.279Z,23.0
2017-04-23T03:38:41.362Z,23.1
2017-04-23T03:39:49.449Z,23.1
2017-04-23T03:40:57.537Z,23.1
2017-04-23T03:42:05.624Z,23.1
2017-04-23T03:43:13.778Z,23.1
2017-04-23T03:44:21.798Z,23.1
2017-04-23T03:45:29.883Z,23.1
2017-04-23T03:46:37.971Z,23.1
2017-04-23T03:47:46.057Z,23.1
2017-04-23T03:48:54.145Z,23.0
2017-04-23T03:50:02.234Z,23.1
2017-04-23T03:51:10.319Z,23.1
2017-04-23T03:52:18.410Z,23.1
2017-04-23T03:53:26.502Z,23.0
2017-04-23T03:54:34.614Z,23.1
2017-04-23T03:55:42.674Z,23.1
2017-04-23T03:56:50.764Z,23.0
2017-04-23T03:57:58.857Z,23.1
2017-04-23T03:59:06.943Z,23.0
2017-04-23T04:00:15.029Z,23.1
2017-04-23T04:01:23.115Z,23.1
2017-04-23T04:02:31.195Z,23.1
2017-04-23T04:03:39.288Z,23.1
2017-04-23T04:04:47.376Z,23.1
2017-04-23T04:05:55.458Z,23.1
2017-04-23T04:07:03.547Z,23.1
2017-04-23T04:08:11.642Z,23.1
2017-04-23T04:09:19.730Z,23.1
2017-04-23T04:10:27.844Z,23.1
2017-04-23T04:11:35.904Z,23.1
2017-04-23T04:12:43.995Z,23.1
2017-04-23T04:13:52.070Z,22.9
2017-04-23T04:15:00.165Z,23.1
2017-04-23T04:16:08.256Z,23.0
2017-04-23T04:17:16.342Z,23.0
2017-04-23T04:18:24.425Z,22.9
2017-04-23T04:19:32.524Z,23.0
2017-04-23T04:20:40.610Z,23.0
2017-04-23T04:21:48.696Z,23.0
2017-04-23T04:22:56.779Z,23.0
2017-04-23T04:24:04.870Z,23.1
2017-04-23T04:25:12.957Z,23.0
2017-04-23T04:26:21.062Z,23.0
2017-04-23T04:27:29.131Z,23.0
2017-04-23T04:28:37.217Z,23.0
2017-04-23T04:29:45.300Z,23.0
2017-04-23T04:30:53.387Z,23.0
2017-04-23T04:32:01.478Z,22.9
2017-04-23T04:33:09.573Z,22.9
2017-04-23T04:34:17.667Z,22.9
2017-04-23T04:35:25.754Z,23.0
2017-04-23T04:36:33.844Z,22.9
2017-04-23T04:37:41.925Z,22.9
2017-04-23T04:38:50.010Z,23.0
2017-04-23T04:39:58.110Z,23.0
2017-04-23T04:41:06.190Z,22.9
2017-04-23T04:42:14.279Z,23.0
2017-04-23T04:43:22.364Z,22.8
2017-04-23T04:44:30.459Z,22.8
2017-04-23T04:45:38.546Z,22.9
2017-04-23T04:46:46.627Z,22.9
2017-04-23T04:47:54.723Z,22.8
2017-04-23T04:49:02.812Z,22.9
2017-04-23T04:50:10.891Z,22.9
2017-04-23T04:51:18.980Z,22.9
2017-04-23T04:52:27.067Z,22.8
2017-04-23T04:53:35.151Z,22.8
2017-04-23T04:54:43.247Z,22.9
2017-04-23T04:55:51.330Z,22.8
2017-04-23T04:56:59.418Z,22.8
2017-04-23T04:58:07.499Z,22.8
2017-04-23T04:59:15.591Z,22.8
2017-04-23T05:00:23.703Z,22.7
2017-04-23T05:01:31.761Z,22.8
2017-04-23T05:02:39.849Z,22.8
2017-04-23T05:03:47.936Z,22.7
2017-04-23T05:04:56.019Z,22.8
2017-04-23T05:06:04.105Z,22.8
2017-04-23T05:07:12.195Z,22.8
2017-04-23T05:08:20.283Z,22.8
2017-04-23T05:09:28.371Z,22.8
2017-04-23T05:10:36.458Z,22.8
2017-04-23T05:11:44.548Z,22.8
2017-04-23T05:12:52.632Z,22.8
2017-04-23T05:14:00.717Z,22.8
2017-04-23T05:15:08.809Z,22.8
2017-04-23T05:16:16.893Z,22.8
2017-04-23T05:17:24.983Z,22.7
2017-04-23T05:18:33.067Z,22.7
2017-04-23T05:19:41.152Z,22.6
2017-04-23T05:20:49.238Z,22.6
2017-04-23T05:21:57.323Z,22.6
2017-04-23T05:23:05.413Z,22.6
2017-04-23T05:24:13.501Z,22.6
2017-04-23T05:25:21.592Z,22.7
2017-04-23T05:26:29.671Z,22.7
2017-04-23T05:27:37.758Z,22.6
2017-04-23T05:28:45.844Z,22.6
2017-04-23T05:29:53.938Z,22.6
2017-04-23T05:31:02.029Z,22.6
2017-04-23T05:32:10.111Z,22.6
2017-04-23T05:33:18.197Z,22.6
2017-04-23T05:34:26.288Z,22.7
2017-04-23T05:35:34.374Z,22.6
2017-04-23T05:36:42.463Z,22.6
2017-04-23T05:37:50.562Z,22.6
2017-04-23T05:38:58.637Z,22.6
2017-04-23T05:40:06.721Z,22.6
2017-04-23T05:41:14.809Z,22.6
2017-04-23T05:42:22.899Z,22.6
2017-04-23T05:43:30.988Z,22.6
2017-04-23T05:44:39.072Z,22.5
2017-04-23T05:45:47.156Z,22.5
2017-04-23T05:46:55.492Z,22.5
2017-04-23T05:48:03.331Z,22.5
2017-04-23T05:49:11.415Z,22.5
2017-04-23T05:50:19.509Z,22.5
2017-04-23T05:51:27.597Z,22.5
2017-04-23T05:52:35.806Z,22.6
2017-04-23T05:53:43.767Z,22.5
2017-04-23T05:54:51.893Z,22.5
2017-04-23T05:55:59.942Z,22.4
2017-04-23T05:57:08.024Z,22.4
2017-04-23T05:58:16.116Z,22.4
2017-04-23T05:59:24.205Z,22.4
2017-04-23T06:00:32.295Z,22.4
2017-04-23T06:01:40.377Z,22.4
2017-04-23T06:02:48.467Z,22.4
2017-04-23T06:03:56.553Z,22.4
2017-04-23T06:05:04.641Z,22.3
2017-04-23T06:06:12.730Z,22.3
2017-04-23T06:07:20.817Z,22.4
2017-04-23T06:08:28.902Z,22.3
2017-04-23T06:09:37.001Z,22.2
2017-04-23T06:10:45.081Z,22.3
2017-04-23T06:11:53.227Z,22.2
2017-04-23T06:13:01.247Z,22.3
2017-04-23T06:14:09.339Z,22.3
2017-04-23T06:15:17.427Z,22.3
2017-04-23T06:16:25.519Z,22.3
2017-04-23T06:17:33.636Z,22.2
2017-04-23T06:18:41.693Z,22.2
2017-04-23T06:19:49.802Z,22.3
2017-04-23T06:20:57.864Z,22.3
2017-04-23T06:22:05.960Z,22.2
2017-04-23T06:23:14.039Z,22.2
2017-04-23T06:24:22.124Z,22.2
2017-04-23T06:25:30.211Z,22.2
2017-04-23T06:26:38.301Z,22.2
2017-04-23T06:27:46.381Z,22.2
2017-04-23T06:28:54.557Z,22.2
2017-04-23T06:30:02.554Z,22.1
2017-04-23T06:31:10.701Z,22.2
2017-04-23T06:32:18.726Z,22.2
2017-04-23T06:33:26.816Z,22.2
2017-04-23T06:34:34.905Z,22.2
2017-04-23T06:35:42.989Z,22.2
2017-04-23T06:36:51.071Z,22.2
2017-04-23T06:37:59.162Z,22.2
2017-04-23T06:39:07.243Z,22.2
2017-04-23T06:40:15.333Z,22.2
2017-04-23T06:41:23.418Z,22.2
2017-04-23T06:42:31.504Z,22.2
2017-04-23T06:43:39.591Z,22.2
2017-04-23T06:44:47.673Z,22.2
2017-04-23T06:45:56.033Z,22.2
2017-04-23T06:47:03.848Z,22.2
2017-04-23T06:48:16.194Z,22.2
2017-04-23T06:49:20.024Z,22.3
2017-04-23T06:50:28.109Z,22.2
2017-04-23T06:51:36.193Z,22.3
2017-04-23T06:52:44.281Z,22.2
2017-04-23T06:53:52.367Z,22.3
2017-04-23T06:55:00.453Z,22.3
2017-04-23T06:56:08.532Z,22.3
2017-04-23T06:57:16.630Z,22.3
2017-04-23T06:58:24.715Z,22.3
2017-04-23T06:59:32.797Z,22.3
2017-04-23T07:00:40.882Z,22.3
2017-04-23T07:01:48.973Z,22.3
2017-04-23T07:02:57.055Z,22.3
2017-04-23T07:04:05.139Z,22.3
2017-04-23T07:05:13.230Z,22.3
2017-04-23T07:06:21.322Z,22.3
2017-04-23T07:07:29.397Z,22.4
2017-04-23T07:08:37.486Z,22.4
2017-04-23T07:09:45.575Z,22.4
2017-04-23T07:10:53.671Z,22.4
2017-04-23T07:12:01.757Z,22.3
2017-04-23T07:13:09.845Z,22.3
2017-04-23T07:14:17.932Z,22.4
2017-04-23T07:15:26.013Z,22.4
2017-04-23T07:16:34.103Z,22.5
2017-04-23T07:17:42.192Z,22.4
2017-04-23T07:18:50.274Z,22.4
2017-04-23T07:19:58.361Z,22.6
2017-04-23T07:21:06.445Z,22.5
2017-04-23T07:22:14.534Z,22.5
2017-04-23T07:23:22.623Z,22.5
2017-04-23T07:24:30.708Z,22.6
2017-04-23T07:25:38.795Z,22.6
2017-04-23T07:26:46.878Z,22.5
2017-04-23T07:27:54.964Z,22.6
2017-04-23T07:29:03.052Z,22.6
2017-04-23T07:30:11.137Z,22.6
2017-04-23T07:31:19.222Z,22.6
2017-04-23T07:32:27.309Z,22.6
2017-04-23T07:33:35.397Z,22.6
2017-04-23T07:34:43.483Z,22.6
2017-04-23T07:35:51.567Z,22.6
2017-04-23T07:36:59.658Z,22.6
2017-04-23T07:38:07.743Z,22.7
2017-04-23T07:39:15.828Z,22.6
2017-04-23T07:40:23.923Z,22.7
2017-04-23T07:41:32.010Z,22.8
2017-04-23T07:42:40.095Z,22.8
2017-04-23T07:43:48.183Z,22.7
2017-04-23T07:44:56.274Z,22.8
2017-04-23T07:46:04.359Z,22.8
2017-04-23T07:47:12.446Z,22.7
2017-04-23T07:48:20.532Z,22.8
2017-04-23T07:49:28.620Z,22.8
2017-04-23T07:50:36.702Z,22.7
2017-04-23T07:51:44.787Z,22.8
2017-04-23T07:52:52.879Z,22.8
2017-04-23T07:54:00.964Z,22.9
2017-04-23T07:55:09.045Z,22.8
2017-04-23T07:56:17.138Z,22.9
2017-04-23T07:57:25.222Z,22.9
2017-04-23T07:58:33.312Z,22.9
2017-04-23T07:59:41.393Z,22.9
2017-04-23T08:00:49.487Z,22.9
2017-04-23T08:01:57.571Z,23.0
2017-04-23T08:03:05.678Z,22.9
2017-04-23T08:04:13.741Z,22.9
2017-04-23T08:05:21.830Z,23.0
2017-04-23T08:06:29.912Z,23.0
2017-04-23T08:07:38.003Z,23.0
2017-04-23T08:08:46.097Z,23.0
2017-04-23T08:09:54.184Z,23.0
2017-04-23T08:11:02.348Z,23.0
2017-04-23T08:12:10.355Z,23.1
2017-04-23T08:13:18.446Z,23.1
2017-04-23T08:14:26.542Z,23.0
2017-04-23T08:15:34.632Z,23.1
2017-04-23T08:16:43.225Z,23.1
2017-04-23T08:17:50.826Z,23.1
2017-04-23T08:18:58.912Z,23.2
2017-04-23T08:20:06.988Z,23.2
2017-04-23T08:21:15.073Z,23.2
2017-04-23T08:22:23.169Z,23.2
2017-04-23T08:23:31.256Z,23.1
2017-04-23T08:24:39.344Z,23.2
2017-04-23T08:25:47.438Z,23.2
2017-04-23T08:26:55.521Z,23.1
2017-04-23T08:28:03.608Z,23.2
2017-04-23T08:29:11.693Z,23.2
2017-04-23T08:30:19.780Z,23.2
2017-04-23T08:31:28.399Z,23.2
2017-04-23T08:32:35.963Z,23.2
2017-04-23T08:33:44.042Z,23.2
2017-04-23T08:34:52.141Z,23.2
2017-04-23T08:36:00.217Z,23.2
2017-04-23T08:37:08.312Z,23.3
2017-04-23T08:38:16.388Z,23.2
2017-04-23T08:39:24.477Z,23.2
2017-04-23T08:40:32.569Z,23.3
2017-04-23T08:40:32.581Z,23.3
2017-04-23T08:41:40.646Z,23.3
2017-04-23T08:42:48.736Z,23.2
2017-04-23T08:43:56.827Z,23.2
2017-04-23T08:45:04.917Z,23.2
2017-04-23T08:46:13.002Z,23.2
2017-04-23T08:47:21.091Z,23.2
2017-04-23T08:48:29.177Z,23.2
2017-04-23T08:49:37.268Z,23.3
2017-04-23T08:50:45.355Z,23.3
2017-04-23T08:51:53.449Z,23.3
2017-04-23T08:53:01.535Z,23.3
2017-04-23T08:54:09.618Z,23.3
2017-04-23T08:55:17.708Z,23.3
2017-04-23T08:56:25.798Z,23.4
2017-04-23T08:57:33.898Z,23.3
2017-04-23T08:58:41.972Z,23.4
2017-04-23T08:59:50.060Z,23.4
2017-04-23T09:00:58.148Z,23.4
2017-04-23T09:02:06.240Z,23.3
2017-04-23T09:03:14.320Z,23.4
2017-04-23T09:04:22.407Z,23.3
2017-04-23T09:05:30.491Z,23.3
2017-04-23T09:06:38.575Z,23.4
2017-04-23T09:07:46.669Z,23.3
2017-04-23T09:08:54.758Z,23.3
2017-04-23T09:10:02.850Z,23.3
2017-04-23T09:11:10.936Z,23.3
2017-04-23T09:12:19.029Z,23.3
2017-04-23T09:13:27.113Z,23.4
2017-04-23T09:14:35.248Z,23.3
2017-04-23T09:15:43.291Z,23.3
2017-04-23T09:16:51.375Z,23.3
2017-04-23T09:17:59.464Z,23.3
2017-04-23T09:19:07.567Z,23.3
2017-04-23T09:20:15.647Z,23.3
2017-04-23T09:21:23.733Z,23.4
2017-04-23T09:22:31.817Z,23.4
2017-04-23T09:23:39.913Z,23.4
2017-04-23T09:24:47.998Z,23.4
2017-04-23T09:25:56.086Z,23.4
2017-04-23T09:27:04.174Z,23.4
2017-04-23T09:28:12.266Z,23.5
2017-04-23T09:29:20.349Z,23.4
2017-04-23T09:30:28.438Z,23.3
2017-04-23T09:31:36.530Z,23.4
2017-04-23T09:32:44.614Z,23.4
2017-04-23T09:33:52.698Z,23.4
2017-04-23T09:35:00.999Z,23.4
2017-04-23T09:36:08.882Z,23.4
2017-04-23T09:37:16.965Z,23.4
2017-04-23T09:38:25.057Z,23.3
2017-04-23T09:39:33.143Z,23.4
2017-04-23T09:40:41.225Z,23.4
2017-04-23T09:41:49.311Z,23.4
2017-04-23T09:42:57.406Z,23.5
2017-04-23T09:44:05.490Z,23.4
2017-04-23T09:45:13.578Z,23.4
2017-04-23T09:46:21.666Z,23.4
2017-04-23T09:47:29.755Z,23.5
2017-04-23T09:48:37.840Z,23.4
2017-04-23T09:49:45.922Z,23.4
2017-04-23T09:50:54.017Z,23.4
2017-04-23T09:52:02.097Z,23.5
2017-04-23T09:53:10.184Z,23.4
2017-04-23T09:54:18.278Z,23.5
2017-04-23T09:55:26.367Z,23.4
2017-04-23T09:56:34.449Z,23.4
2017-04-23T09:57:42.552Z,23.4
2017-04-23T09:58:50.623Z,23.5
2017-04-23T09:59:58.712Z,23.4
2017-04-23T10:01:06.800Z,23.4
2017-04-23T10:02:14.890Z,23.4
2017-04-23T10:03:22.977Z,23.4
2017-04-23T10:04:31.080Z,23.4
2017-04-23T10:05:39.154Z,23.3
2017-04-23T10:06:47.239Z,23.3
2017-04-23T10:07:55.328Z,23.3
2017-04-23T10:09:03.413Z,23.3
2017-04-23T10:10:11.503Z,23.4
2017-04-23T10:11:19.592Z,23.4
2017-04-23T10:12:27.681Z,23.3
2017-04-23T10:13:35.760Z,23.4
2017-04-23T10:14:43.850Z,23.4
2017-04-23T10:15:51.936Z,23.5
2017-04-23T10:17:00.045Z,23.4
2017-04-23T10:18:08.113Z,23.3
2017-04-23T10:19:16.200Z,23.4
2017-04-23T10:20:24.290Z,23.4
2017-04-23T10:21:32.377Z,23.3
2017-04-23T10:22:40.470Z,23.3
2017-04-23T10:23:48.555Z,23.3
2017-04-23T10:24:56.637Z,23.3
2017-04-23T10:26:04.727Z,23.3
2017-04-23T10:27:12.819Z,23.3
2017-04-23T10:28:20.905Z,23.3
2017-04-23T10:29:28.990Z,23.3
2017-04-23T10:30:37.093Z,23.4
2017-04-23T10:31:45.169Z,23.3
2017-04-23T10:32:53.254Z,23.3
2017-04-23T10:34:01.343Z,23.4
2017-04-23T10:35:09.428Z,23.3
2017-04-23T10:36:17.515Z,23.3
2017-04-23T10:37:25.602Z,23.3
2017-04-23T10:38:33.690Z,23.4
2017-04-23T10:39:41.779Z,23.3
2017-04-23T10:40:49.863Z,23.4
2017-04-23T10:41:57.952Z,23.3
2017-04-23T10:43:06.046Z,23.3
2017-04-23T10:44:14.132Z,23.3
2017-04-23T10:45:22.216Z,23.3
2017-04-23T10:46:30.301Z,23.3
2017-04-23T10:47:38.394Z,23.3
2017-04-23T10:48:46.498Z,23.3
2017-04-23T10:49:54.568Z,23.3
2017-04-23T10:51:02.665Z,23.3
2017-04-23T10:52:10.739Z,23.3
2017-04-23T10:53:18.827Z,23.3
2017-04-23T10:54:26.921Z,23.3
2017-04-23T10:55:35.006Z,23.3
2017-04-23T10:56:43.098Z,23.3
2017-04-23T10:57:51.187Z,23.3
2017-04-23T10:58:59.276Z,23.3
2017-04-23T11:00:07.366Z,23.2
2017-04-23T11:01:15.452Z,23.4
2017-04-23T11:02:23.540Z,23.2
2017-04-23T11:03:31.623Z,23.3
2017-04-23T11:04:39.710Z,23.3
2017-04-23T11:05:47.799Z,23.2
2017-04-23T11:06:55.888Z,23.3
2017-04-23T11:08:03.969Z,23.3
2017-04-23T11:09:12.058Z,23.3
2017-04-23T11:10:20.147Z,23.2
2017-04-23T11:11:28.234Z,23.2
2017-04-23T11:12:36.318Z,23.3
2017-04-23T11:13:44.532Z,23.2
2017-04-23T11:14:52.495Z,23.3
2017-04-23T11:16:00.581Z,23.3
2017-04-23T11:17:08.670Z,23.3
2017-04-23T11:18:16.758Z,23.2
2017-04-23T11:19:24.843Z,23.3
2017-04-23T11:20:32.927Z,23.1
2017-04-23T11:21:41.016Z,23.2
2017-04-23T11:22:49.103Z,23.2
2017-04-23T11:23:57.191Z,23.2
2017-04-23T11:25:05.279Z,23.1
2017-04-23T11:26:13.407Z,23.2
2017-04-23T11:27:21.724Z,23.2
2017-04-23T11:28:29.542Z,23.2
2017-04-23T11:29:37.852Z,23.2
2017-04-23T11:30:45.742Z,23.2
2017-04-23T11:31:53.800Z,23.2
2017-04-23T11:33:01.890Z,23.2
2017-04-23T11:34:10.038Z,23.2
2017-04-23T11:35:18.501Z,23.2
2017-04-23T11:36:26.150Z,23.2
2017-04-23T11:37:34.241Z,23.2
2017-04-23T11:38:42.916Z,23.2
2017-04-23T11:39:50.413Z,23.2
2017-04-23T11:40:58.503Z,23.2
2017-04-23T11:42:06.590Z,23.2
2017-04-23T11:43:14.757Z,23.2
2017-04-23T11:44:22.763Z,23.2
2017-04-23T11:45:30.850Z,23.3
2017-04-23T11:46:38.936Z,23.2
2017-04-23T11:47:47.019Z,23.2
2017-04-23T11:48:55.110Z,23.2
2017-04-23T11:50:03.201Z,23.2
2017-04-23T11:51:11.282Z,23.2
2017-04-23T11:52:19.377Z,23.2
2017-04-23T11:53:27.464Z,23.2
2017-04-23T11:54:35.550Z,23.2
2017-04-23T11:55:43.632Z,23.2
2017-04-23T11:56:51.724Z,23.2
2017-04-23T11:57:59.816Z,23.2
2017-04-23T11:59:07.912Z,23.2
2017-04-23T12:00:16.053Z,23.2
2017-04-23T12:01:24.105Z,23.2
2017-04-23T12:02:32.187Z,23.2
2017-04-23T12:03:40.277Z,23.2
2017-04-23T12:04:48.369Z,23.2
2017-04-23T12:05:56.455Z,23.2
2017-04-23T12:07:04.539Z,23.2
2017-04-23T12:08:12.630Z,23.2
2017-04-23T12:09:20.718Z,23.2
2017-04-23T12:10:28.804Z,23.2
2017-04-23T12:11:36.887Z,23.2
2017-04-23T12:12:44.977Z,23.3
2017-04-23T12:13:53.063Z,23.2
2017-04-23T12:15:01.556Z,23.2
2017-04-23T12:16:09.240Z,23.2
2017-04-23T12:17:17.332Z,23.2
2017-04-23T12:18:25.417Z,23.2
2017-04-23T12:19:33.502Z,23.2
2017-04-23T12:20:41.594Z,23.2
2017-04-23T12:21:49.684Z,23.2
2017-04-23T12:22:57.764Z,23.2
2017-04-23T12:24:05.854Z,23.1
2017-04-23T12:25:13.943Z,23.2
2017-04-23T12:26:22.024Z,23.2
2017-04-23T12:27:31.855Z,23.1
2017-04-23T12:28:38.204Z,23.1
2017-04-23T12:29:46.290Z,23.2
2017-04-23T12:30:54.373Z,23.1
2017-04-23T12:32:02.461Z,23.2
2017-04-23T12:33:10.553Z,23.1
2017-04-23T12:34:18.652Z,23.2
2017-04-23T12:35:26.820Z,23.1
2017-04-23T12:36:34.825Z,23.2
2017-04-23T12:37:42.959Z,23.1
2017-04-23T12:38:51.001Z,23.1
2017-04-23T12:39:59.092Z,23.1
2017-04-23T12:41:07.617Z,23.1
2017-04-23T12:42:15.273Z,23.2
2017-04-23T12:43:23.361Z,23.2
2017-04-23T12:44:31.789Z,23.2
2017-04-23T12:45:39.532Z,23.2
2017-04-23T12:46:47.626Z,23.1
2017-04-23T12:47:55.806Z,23.1
2017-04-23T12:49:03.807Z,23.1
2017-04-23T12:50:11.885Z,23.1
2017-04-23T12:51:19.978Z,23.1
2017-04-23T12:52:28.064Z,23.2
2017-04-23T12:53:36.150Z,23.1
2017-04-23T12:54:44.238Z,23.2
2017-04-23T12:55:52.330Z,23.1
2017-04-23T12:57:00.419Z,23.1
2017-04-23T12:58:08.511Z,23.2
2017-04-23T12:59:16.605Z,23.1
2017-04-23T13:00:24.743Z,23.1
2017-04-23T13:01:32.778Z,23.1
2017-04-23T13:02:40.857Z,23.1
2017-04-23T13:03:48.950Z,23.1
2017-04-23T13:04:57.035Z,23.1
2017-04-23T13:06:05.122Z,23.1
2017-04-23T13:07:13.208Z,23.1
2017-04-23T13:08:21.292Z,23.1
2017-04-23T13:09:29.380Z,23.1
2017-04-23T13:10:37.463Z,23.1
2017-04-23T13:11:45.553Z,23.1
2017-04-23T13:12:53.640Z,23.1
2017-04-23T13:14:01.722Z,23.1
2017-04-23T13:15:09.815Z,23.1
2017-04-23T13:16:17.901Z,23.1
2017-04-23T13:17:25.984Z,23.0
2017-04-23T13:18:34.075Z,23.1
2017-04-23T13:19:42.162Z,23.1
2017-04-23T13:20:50.249Z,23.1
2017-04-23T13:21:58.329Z,23.0
2017-04-23T13:23:06.431Z,23.0
2017-04-23T13:24:14.510Z,23.0
2017-04-23T13:25:22.594Z,23.1
2017-04-23T13:26:30.688Z,23.1
2017-04-23T13:27:38.770Z,23.0
2017-04-23T13:28:46.852Z,23.1
2017-04-23T13:29:54.938Z,23.0
2017-04-23T13:31:03.030Z,23.1
2017-04-23T13:32:11.113Z,23.0
2017-04-23T13:33:19.204Z,23.0
2017-04-23T13:34:27.288Z,23.0
2017-04-23T13:35:35.374Z,23.0
2017-04-23T13:36:43.465Z,23.1
2017-04-23T13:37:51.550Z,22.9
2017-04-23T13:38:59.642Z,23.0
2017-04-23T13:40:07.724Z,23.0
2017-04-23T13:41:15.812Z,23.0
2017-04-23T13:42:23.898Z,22.9
2017-04-23T13:43:31.990Z,23.0
2017-04-23T13:44:40.080Z,23.0
2017-04-23T13:45:48.163Z,23.0
2017-04-23T13:46:56.251Z,23.0
2017-04-23T13:48:04.337Z,22.9
2017-04-23T13:49:12.426Z,23.0
2017-04-23T13:50:20.506Z,22.9
2017-04-23T13:51:28.595Z,23.0
2017-04-23T13:52:36.682Z,23.0
2017-04-23T13:53:44.769Z,22.9
2017-04-23T13:54:52.858Z,23.0
2017-04-23T13:56:00.951Z,22.9
2017-04-23T13:57:09.037Z,23.0
2017-04-23T13:58:17.129Z,23.0
2017-04-23T13:59:25.219Z,22.9
2017-04-23T14:00:33.307Z,22.9
2017-04-23T14:01:41.389Z,23.0
2017-04-23T14:02:49.481Z,23.0
2017-04-23T14:03:57.568Z,22.9
2017-04-23T14:05:05.649Z,23.0
2017-04-23T14:06:13.740Z,22.9
2017-04-23T14:07:21.826Z,23.0
2017-04-23T14:08:29.914Z,23.0
2017-04-23T14:09:37.995Z,22.9
2017-04-23T14:10:46.085Z,23.0
2017-04-23T14:11:54.172Z,22.9
2017-04-23T14:13:02.259Z,22.9
2017-04-23T14:14:10.350Z,22.9
2017-04-23T14:15:18.438Z,22.9
2017-04-23T14:16:26.523Z,22.8
2017-04-23T14:17:34.609Z,23.0
2017-04-23T14:18:42.705Z,22.9
2017-04-23T14:19:50.790Z,22.9
2017-04-23T14:20:58.874Z,22.9
2017-04-23T14:22:06.964Z,23.0
2017-04-23T14:23:15.058Z,22.9
2017-04-23T14:24:23.137Z,22.9
2017-04-23T14:25:31.222Z,22.9
2017-04-23T14:26:39.317Z,22.9
2017-04-23T14:27:47.405Z,22.8
2017-04-23T14:28:55.549Z,22.9
2017-04-23T14:30:03.578Z,22.9
2017-04-23T14:31:11.666Z,22.9
2017-04-23T14:32:19.753Z,22.9
2017-04-23T14:33:27.844Z,22.9
2017-04-23T14:34:35.930Z,22.9
2017-04-23T14:35:44.014Z,22.9
2017-04-23T14:36:52.095Z,22.9
2017-04-23T14:38:00.187Z,22.9
2017-04-23T14:39:08.285Z,22.9
2017-04-23T14:40:16.361Z,22.9
2017-04-23T14:41:24.448Z,22.9
2017-04-23T14:42:32.541Z,22.9
2017-04-23T14:43:40.628Z,22.8
2017-04-23T14:44:48.712Z,22.8
2017-04-23T14:45:56.900Z,22.8
2017-04-23T14:47:04.892Z,22.8
2017-04-23T14:48:12.975Z,22.8
2017-04-23T14:49:21.059Z,22.8
2017-04-23T14:50:29.149Z,22.8
2017-04-23T14:51:37.232Z,22.8
2017-04-23T14:52:45.320Z,22.8
2017-04-23T14:53:53.417Z,22.8
2017-04-23T14:55:01.497Z,22.8
2017-04-23T14:56:09.587Z,22.8
2017-04-23T14:57:17.667Z,22.8
2017-04-23T14:58:25.771Z,22.8
2017-04-23T14:59:33.861Z,22.7
2017-04-23T15:00:41.949Z,22.8
2017-04-23T15:01:50.035Z,22.8
2017-04-23T15:02:58.123Z,22.9
2017-04-23T15:04:06.218Z,22.8
2017-04-23T15:05:14.289Z,22.8